This is the latest recevied weather packets stored in our database for station/object PY2AQN-13. If no packets are shown the sender has not sent any weather packets the latest 10 day(s).
| Time | Temp. | Humidity | Pressure | Rain* | Wind** | Luminosity | Snow |
|---|---|---|---|---|---|---|---|
| 1787374188 | 16.11° C | 76% | 1017.9 hPa | - | - | - | - |
| 1787373588 | 16.11° C | 76% | 1018 hPa | - | - | - | - |
| 1787372988 | 16.67° C | 75% | 1018 hPa | - | - | - | - |
| 1787372388 | 16.11° C | 76% | 1018.1 hPa | - | - | - | - |
| 1787371788 | 16.11° C | 76% | 1018.1 hPa | - | - | - | - |
| 1787371188 | 16.11° C | 76% | 1018.2 hPa | - | - | - | - |
| 1787370588 | 16.11° C | 77% | 1018.1 hPa | - | - | - | - |
| 1787369988 | 16.11° C | 77% | 1018.2 hPa | - | - | - | - |
| 1787369388 | 16.11° C | 78% | 1018.4 hPa | - | - | - | - |
| 1787368788 | 16.11° C | 78% | 1018.2 hPa | - | - | - | - |
| 1787368188 | 16.67° C | 76% | 1018.3 hPa | - | - | - | - |
| 1787367588 | 16.67° C | 75% | 1018.3 hPa | - | - | - | - |
| 1787366988 | 16.67° C | 76% | 1018.3 hPa | - | - | - | - |
| 1787366388 | 17.22° C | 75% | 1018.3 hPa | - | - | - | - |
| 1787365788 | 17.22° C | 74% | 1018.1 hPa | - | - | - | - |
| 1787365188 | 17.22° C | 74% | 1018 hPa | - | - | - | - |
| 1787364589 | 17.22° C | 73% | 1017.9 hPa | - | - | - | - |
| 1787363989 | 17.22° C | 73% | 1017.8 hPa | - | - | - | - |
| 1787363389 | 17.22° C | 72% | 1017.9 hPa | - | - | - | - |
| 1787362789 | 17.22° C | 72% | 1017.7 hPa | - | - | - | - |
| 1787362189 | 17.78° C | 71% | 1017.6 hPa | - | - | - | - |
| 1787361589 | 18.33° C | 69% | 1017.3 hPa | - | - | - | - |
| 1787360989 | 18.89° C | 66% | 1017.2 hPa | - | - | - | - |
| 1787360389 | 19.44° C | 63% | 1016.8 hPa | - | - | - | - |
| 1787359789 | 20.56° C | 55% | 1016.5 hPa | - | - | - | - |
* Rain since midnight (hover to see other rain measurements)
** Current wind speed in m/s (hover to see current wind gust speed)